sensor_id;sensor_type;location;lat;lon;timestamp;P1;durP1;ratioP1;P2;durP2;ratioP2
1509;SDS011;746;48.688;9.428;2022-09-03T00:00:44;1.90;;;1.80;;
1509;SDS011;746;48.688;9.428;2022-09-03T00:03:13;2.20;;;1.97;;
1509;SDS011;746;48.688;9.428;2022-09-03T00:05:39;2.83;;;2.10;;
1509;SDS011;746;48.688;9.428;2022-09-03T00:08:04;2.00;;;1.90;;
1509;SDS011;746;48.688;9.428;2022-09-03T00:10:30;1.90;;;1.80;;
1509;SDS011;746;48.688;9.428;2022-09-03T00:12:58;2.20;;;2.00;;
1509;SDS011;746;48.688;9.428;2022-09-03T00:15:21;1.90;;;1.80;;
1509;SDS011;746;48.688;9.428;2022-09-03T00:17:44;2.30;;;2.10;;
1509;SDS011;746;48.688;9.428;2022-09-03T00:20:11;2.33;;;2.13;;
1509;SDS011;746;48.688;9.428;2022-09-03T00:22:36;4.30;;;2.10;;
1509;SDS011;746;48.688;9.428;2022-09-03T00:25:01;1.80;;;1.70;;
1509;SDS011;746;48.688;9.428;2022-09-03T00:27:24;2.73;;;1.90;;
1509;SDS011;746;48.688;9.428;2022-09-03T00:29:48;3.10;;;2.10;;
1509;SDS011;746;48.688;9.428;2022-09-03T00:32:12;2.13;;;2.03;;
1509;SDS011;746;48.688;9.428;2022-09-03T00:34:36;2.77;;;1.87;;
1509;SDS011;746;48.688;9.428;2022-09-03T00:37:01;2.00;;;1.90;;
1509;SDS011;746;48.688;9.428;2022-09-03T00:39:23;2.00;;;1.90;;
1509;SDS011;746;48.688;9.428;2022-09-03T00:41:48;1.97;;;1.87;;
1509;SDS011;746;48.688;9.428;2022-09-03T00:44:34;2.10;;;1.90;;
1509;SDS011;746;48.688;9.428;2022-09-03T00:47:08;4.40;;;2.10;;
1509;SDS011;746;48.688;9.428;2022-09-03T00:49:35;2.30;;;2.10;;
1509;SDS011;746;48.688;9.428;2022-09-03T00:52:05;1.77;;;1.60;;
1509;SDS011;746;48.688;9.428;2022-09-03T00:54:31;3.73;;;1.90;;
1509;SDS011;746;48.688;9.428;2022-09-03T00:57:06;2.00;;;1.90;;
1509;SDS011;746;48.688;9.428;2022-09-03T00:59:37;2.10;;;1.90;;
1509;SDS011;746;48.688;9.428;2022-09-03T01:02:03;3.17;;;2.10;;
1509;SDS011;746;48.688;9.428;2022-09-03T01:04:34;2.10;;;2.00;;
1509;SDS011;746;48.688;9.428;2022-09-03T01:07:02;4.10;;;1.73;;
1509;SDS011;746;48.688;9.428;2022-09-03T01:09:40;2.10;;;2.00;;
1509;SDS011;746;48.688;9.428;2022-09-03T01:12:10;2.17;;;2.07;;
1509;SDS011;746;48.688;9.428;2022-09-03T01:14:38;2.40;;;2.03;;
1509;SDS011;746;48.688;9.428;2022-09-03T01:17:09;3.33;;;2.10;;
1509;SDS011;746;48.688;9.428;2022-09-03T01:22:35;1.83;;;1.73;;
1509;SDS011;746;48.688;9.428;2022-09-03T01:25:22;2.20;;;1.83;;
1509;SDS011;746;48.688;9.428;2022-09-03T01:28:00;2.30;;;1.90;;
1509;SDS011;746;48.688;9.428;2022-09-03T01:30:25;1.80;;;1.70;;
1509;SDS011;746;48.688;9.428;2022-09-03T01:32:48;2.80;;;1.80;;
1509;SDS011;746;48.688;9.428;2022-09-03T01:35:14;1.90;;;1.80;;
1509;SDS011;746;48.688;9.428;2022-09-03T01:37:41;2.43;;;2.20;;
1509;SDS011;746;48.688;9.428;2022-09-03T01:40:11;1.80;;;1.70;;
1509;SDS011;746;48.688;9.428;2022-09-03T01:42:39;2.93;;;1.97;;
1509;SDS011;746;48.688;9.428;2022-09-03T01:45:13;1.93;;;1.83;;
1509;SDS011;746;48.688;9.428;2022-09-03T01:47:44;2.03;;;1.93;;
1509;SDS011;746;48.688;9.428;2022-09-03T01:50:12;2.33;;;1.90;;
1509;SDS011;746;48.688;9.428;2022-09-03T01:52:41;2.07;;;1.97;;
1509;SDS011;746;48.688;9.428;2022-09-03T01:55:09;2.30;;;2.10;;
1509;SDS011;746;48.688;9.428;2022-09-03T01:57:40;1.90;;;1.80;;
1509;SDS011;746;48.688;9.428;2022-09-03T02:00:07;2.20;;;2.00;;
1509;SDS011;746;48.688;9.428;2022-09-03T02:02:33;2.30;;;2.20;;
1509;SDS011;746;48.688;9.428;2022-09-03T02:05:00;2.20;;;2.00;;
1509;SDS011;746;48.688;9.428;2022-09-03T02:07:29;3.57;;;1.83;;
1509;SDS011;746;48.688;9.428;2022-09-03T02:09:53;2.13;;;2.00;;
1509;SDS011;746;48.688;9.428;2022-09-03T02:12:14;2.20;;;2.10;;
1509;SDS011;746;48.688;9.428;2022-09-03T02:14:37;2.20;;;2.10;;
1509;SDS011;746;48.688;9.428;2022-09-03T02:16:58;2.47;;;2.33;;
1509;SDS011;746;48.688;9.428;2022-09-03T02:19:23;3.47;;;2.37;;
1509;SDS011;746;48.688;9.428;2022-09-03T02:21:49;5.70;;;2.23;;
1509;SDS011;746;48.688;9.428;2022-09-03T02:24:12;2.23;;;2.10;;
1509;SDS011;746;48.688;9.428;2022-09-03T02:26:34;2.10;;;2.00;;
1509;SDS011;746;48.688;9.428;2022-09-03T02:28:55;1.97;;;1.87;;
1509;SDS011;746;48.688;9.428;2022-09-03T02:31:17;3.10;;;1.90;;
1509;SDS011;746;48.688;9.428;2022-09-03T02:33:39;2.13;;;2.03;;
1509;SDS011;746;48.688;9.428;2022-09-03T02:36:05;1.90;;;1.80;;
1509;SDS011;746;48.688;9.428;2022-09-03T02:38:28;2.43;;;2.13;;
1509;SDS011;746;48.688;9.428;2022-09-03T02:40:49;2.33;;;2.13;;
1509;SDS011;746;48.688;9.428;2022-09-03T02:43:12;2.57;;;2.10;;
1509;SDS011;746;48.688;9.428;2022-09-03T02:45:37;2.23;;;2.13;;
1509;SDS011;746;48.688;9.428;2022-09-03T02:48:02;2.03;;;1.90;;
1509;SDS011;746;48.688;9.428;2022-09-03T02:50:24;2.67;;;2.17;;
1509;SDS011;746;48.688;9.428;2022-09-03T02:52:47;2.17;;;2.07;;
1509;SDS011;746;48.688;9.428;2022-09-03T02:55:08;2.97;;;1.90;;
1509;SDS011;746;48.688;9.428;2022-09-03T02:57:30;2.07;;;1.87;;
1509;SDS011;746;48.688;9.428;2022-09-03T02:59:51;2.23;;;2.07;;
1509;SDS011;746;48.688;9.428;2022-09-03T03:02:12;2.40;;;2.20;;
1509;SDS011;746;48.688;9.428;2022-09-03T03:04:34;2.20;;;2.10;;
1509;SDS011;746;48.688;9.428;2022-09-03T03:06:55;3.70;;;2.30;;
1509;SDS011;746;48.688;9.428;2022-09-03T03:09:18;3.00;;;2.23;;
1509;SDS011;746;48.688;9.428;2022-09-03T03:11:40;2.63;;;2.23;;
1509;SDS011;746;48.688;9.428;2022-09-03T03:14:02;2.20;;;2.10;;
1509;SDS011;746;48.688;9.428;2022-09-03T03:16:23;2.23;;;2.13;;
1509;SDS011;746;48.688;9.428;2022-09-03T03:18:45;2.30;;;2.20;;
1509;SDS011;746;48.688;9.428;2022-09-03T03:21:07;2.70;;;2.30;;
1509;SDS011;746;48.688;9.428;2022-09-03T03:23:30;2.23;;;2.07;;
1509;SDS011;746;48.688;9.428;2022-09-03T03:25:53;2.87;;;2.30;;
1509;SDS011;746;48.688;9.428;2022-09-03T03:28:21;2.20;;;2.10;;
1509;SDS011;746;48.688;9.428;2022-09-03T03:30:43;2.20;;;2.00;;
1509;SDS011;746;48.688;9.428;2022-09-03T03:33:07;2.37;;;2.27;;
1509;SDS011;746;48.688;9.428;2022-09-03T03:35:29;2.20;;;2.10;;
1509;SDS011;746;48.688;9.428;2022-09-03T03:37:50;2.27;;;2.10;;
1509;SDS011;746;48.688;9.428;2022-09-03T03:40:11;2.33;;;2.23;;
1509;SDS011;746;48.688;9.428;2022-09-03T03:42:35;2.27;;;2.17;;
1509;SDS011;746;48.688;9.428;2022-09-03T03:44:57;2.40;;;2.23;;
1509;SDS011;746;48.688;9.428;2022-09-03T03:47:18;2.70;;;2.50;;
1509;SDS011;746;48.688;9.428;2022-09-03T03:49:39;2.40;;;2.30;;
1509;SDS011;746;48.688;9.428;2022-09-03T03:52:01;2.30;;;2.20;;
1509;SDS011;746;48.688;9.428;2022-09-03T03:54:23;2.70;;;2.50;;
1509;SDS011;746;48.688;9.428;2022-09-03T03:56:44;2.50;;;2.20;;
1509;SDS011;746;48.688;9.428;2022-09-03T03:59:16;2.30;;;2.13;;
1509;SDS011;746;48.688;9.428;2022-09-03T04:01:38;2.47;;;2.27;;
1509;SDS011;746;48.688;9.428;2022-09-03T04:03:59;2.67;;;2.47;;
1509;SDS011;746;48.688;9.428;2022-09-03T04:06:22;2.43;;;2.33;;
1509;SDS011;746;48.688;9.428;2022-09-03T04:08:44;2.40;;;2.30;;
1509;SDS011;746;48.688;9.428;2022-09-03T04:11:08;2.60;;;2.40;;
1509;SDS011;746;48.688;9.428;2022-09-03T04:13:32;4.07;;;2.80;;
1509;SDS011;746;48.688;9.428;2022-09-03T04:16:00;2.53;;;2.43;;
1509;SDS011;746;48.688;9.428;2022-09-03T04:18:22;2.77;;;2.37;;
1509;SDS011;746;48.688;9.428;2022-09-03T04:20:44;3.47;;;2.33;;
1509;SDS011;746;48.688;9.428;2022-09-03T04:23:05;3.37;;;2.30;;
1509;SDS011;746;48.688;9.428;2022-09-03T04:25:27;3.83;;;2.57;;
1509;SDS011;746;48.688;9.428;2022-09-03T04:27:50;4.53;;;2.30;;
1509;SDS011;746;48.688;9.428;2022-09-03T04:30:11;2.80;;;2.53;;
1509;SDS011;746;48.688;9.428;2022-09-03T04:32:34;2.90;;;2.40;;
1509;SDS011;746;48.688;9.428;2022-09-03T04:35:13;2.63;;;2.53;;
1509;SDS011;746;48.688;9.428;2022-09-03T04:37:35;3.27;;;2.60;;
1509;SDS011;746;48.688;9.428;2022-09-03T04:39:56;3.10;;;2.70;;
1509;SDS011;746;48.688;9.428;2022-09-03T04:42:18;2.60;;;2.23;;
1509;SDS011;746;48.688;9.428;2022-09-03T04:44:39;2.70;;;2.33;;
1509;SDS011;746;48.688;9.428;2022-09-03T04:47:00;2.50;;;2.30;;
1509;SDS011;746;48.688;9.428;2022-09-03T04:49:24;2.50;;;2.10;;
1509;SDS011;746;48.688;9.428;2022-09-03T04:51:45;3.00;;;2.53;;
1509;SDS011;746;48.688;9.428;2022-09-03T04:54:06;2.50;;;2.40;;
1509;SDS011;746;48.688;9.428;2022-09-03T04:56:30;2.47;;;2.10;;
1509;SDS011;746;48.688;9.428;2022-09-03T04:58:53;2.50;;;2.30;;
1509;SDS011;746;48.688;9.428;2022-09-03T05:01:16;2.30;;;2.20;;
1509;SDS011;746;48.688;9.428;2022-09-03T05:03:39;2.37;;;2.27;;
1509;SDS011;746;48.688;9.428;2022-09-03T05:06:01;2.60;;;2.40;;
1509;SDS011;746;48.688;9.428;2022-09-03T05:08:26;2.83;;;2.50;;
1509;SDS011;746;48.688;9.428;2022-09-03T05:10:47;2.77;;;2.40;;
1509;SDS011;746;48.688;9.428;2022-09-03T05:13:13;4.87;;;2.70;;
1509;SDS011;746;48.688;9.428;2022-09-03T05:15:36;2.67;;;2.43;;
1509;SDS011;746;48.688;9.428;2022-09-03T05:17:57;2.50;;;2.40;;
1509;SDS011;746;48.688;9.428;2022-09-03T05:20:20;3.10;;;2.60;;
1509;SDS011;746;48.688;9.428;2022-09-03T05:22:43;2.40;;;2.20;;
1509;SDS011;746;48.688;9.428;2022-09-03T05:25:05;2.40;;;2.30;;
1509;SDS011;746;48.688;9.428;2022-09-03T05:27:27;3.40;;;2.40;;
1509;SDS011;746;48.688;9.428;2022-09-03T05:29:49;3.83;;;2.40;;
1509;SDS011;746;48.688;9.428;2022-09-03T05:32:10;2.70;;;2.50;;
1509;SDS011;746;48.688;9.428;2022-09-03T05:34:32;2.70;;;2.50;;
1509;SDS011;746;48.688;9.428;2022-09-03T05:36:53;2.70;;;2.50;;
1509;SDS011;746;48.688;9.428;2022-09-03T05:39:19;2.27;;;2.17;;
1509;SDS011;746;48.688;9.428;2022-09-03T05:41:40;2.87;;;2.13;;
1509;SDS011;746;48.688;9.428;2022-09-03T05:44:01;2.63;;;2.53;;
1509;SDS011;746;48.688;9.428;2022-09-03T05:46:25;2.60;;;2.40;;
1509;SDS011;746;48.688;9.428;2022-09-03T05:48:51;2.80;;;2.17;;
1509;SDS011;746;48.688;9.428;2022-09-03T05:51:13;2.57;;;2.37;;
1509;SDS011;746;48.688;9.428;2022-09-03T05:53:36;2.33;;;2.23;;
1509;SDS011;746;48.688;9.428;2022-09-03T05:56:00;3.50;;;2.43;;
1509;SDS011;746;48.688;9.428;2022-09-03T05:58:25;2.73;;;2.40;;
1509;SDS011;746;48.688;9.428;2022-09-03T06:00:50;2.40;;;2.30;;
1509;SDS011;746;48.688;9.428;2022-09-03T06:03:11;3.27;;;2.40;;
1509;SDS011;746;48.688;9.428;2022-09-03T06:05:33;2.10;;;2.00;;
1509;SDS011;746;48.688;9.428;2022-09-03T06:07:54;2.57;;;2.37;;
1509;SDS011;746;48.688;9.428;2022-09-03T06:10:15;2.87;;;2.40;;
1509;SDS011;746;48.688;9.428;2022-09-03T06:12:45;2.53;;;2.37;;
1509;SDS011;746;48.688;9.428;2022-09-03T06:15:11;2.43;;;2.33;;
1509;SDS011;746;48.688;9.428;2022-09-03T06:17:32;2.73;;;2.53;;
1509;SDS011;746;48.688;9.428;2022-09-03T06:19:53;2.43;;;2.17;;
1509;SDS011;746;48.688;9.428;2022-09-03T06:22:14;2.70;;;2.50;;
1509;SDS011;746;48.688;9.428;2022-09-03T06:24:36;2.63;;;2.43;;
1509;SDS011;746;48.688;9.428;2022-09-03T06:26:57;2.87;;;2.17;;
1509;SDS011;746;48.688;9.428;2022-09-03T06:29:21;2.80;;;2.60;;
1509;SDS011;746;48.688;9.428;2022-09-03T06:31:42;2.97;;;2.70;;
1509;SDS011;746;48.688;9.428;2022-09-03T06:34:04;3.00;;;2.80;;
1509;SDS011;746;48.688;9.428;2022-09-03T06:36:25;2.47;;;2.27;;
1509;SDS011;746;48.688;9.428;2022-09-03T06:38:49;4.13;;;2.67;;
1509;SDS011;746;48.688;9.428;2022-09-03T06:41:12;2.80;;;2.37;;
1509;SDS011;746;48.688;9.428;2022-09-03T06:43:40;2.70;;;2.50;;
1509;SDS011;746;48.688;9.428;2022-09-03T06:46:04;2.40;;;2.30;;
1509;SDS011;746;48.688;9.428;2022-09-03T06:48:28;2.70;;;2.50;;
1509;SDS011;746;48.688;9.428;2022-09-03T06:50:54;2.30;;;2.20;;
1509;SDS011;746;48.688;9.428;2022-09-03T06:53:16;3.10;;;2.70;;
1509;SDS011;746;48.688;9.428;2022-09-03T06:55:37;2.57;;;2.37;;
1509;SDS011;746;48.688;9.428;2022-09-03T06:57:59;4.17;;;2.63;;
1509;SDS011;746;48.688;9.428;2022-09-03T07:00:21;3.50;;;2.60;;
1509;SDS011;746;48.688;9.428;2022-09-03T07:02:44;3.87;;;3.00;;
1509;SDS011;746;48.688;9.428;2022-09-03T07:05:07;2.80;;;2.70;;
1509;SDS011;746;48.688;9.428;2022-09-03T07:07:28;2.53;;;2.43;;
1509;SDS011;746;48.688;9.428;2022-09-03T07:09:52;3.00;;;2.80;;
1509;SDS011;746;48.688;9.428;2022-09-03T07:12:13;2.90;;;2.60;;
1509;SDS011;746;48.688;9.428;2022-09-03T07:14:37;2.87;;;2.67;;
1509;SDS011;746;48.688;9.428;2022-09-03T07:16:58;3.00;;;2.73;;
1509;SDS011;746;48.688;9.428;2022-09-03T07:19:20;2.70;;;2.50;;
1509;SDS011;746;48.688;9.428;2022-09-03T07:21:42;3.30;;;3.00;;
1509;SDS011;746;48.688;9.428;2022-09-03T07:24:08;3.00;;;2.80;;
1509;SDS011;746;48.688;9.428;2022-09-03T07:26:35;2.80;;;2.60;;
1509;SDS011;746;48.688;9.428;2022-09-03T07:28:58;3.00;;;2.70;;
1509;SDS011;746;48.688;9.428;2022-09-03T07:31:21;3.17;;;2.80;;
1509;SDS011;746;48.688;9.428;2022-09-03T07:33:45;3.60;;;2.87;;
1509;SDS011;746;48.688;9.428;2022-09-03T07:36:08;4.13;;;2.97;;
1509;SDS011;746;48.688;9.428;2022-09-03T07:38:30;3.27;;;2.97;;
1509;SDS011;746;48.688;9.428;2022-09-03T07:40:55;2.90;;;2.80;;
1509;SDS011;746;48.688;9.428;2022-09-03T07:43:18;4.70;;;3.03;;
1509;SDS011;746;48.688;9.428;2022-09-03T07:45:40;3.40;;;3.10;;
1509;SDS011;746;48.688;9.428;2022-09-03T07:48:04;3.50;;;3.27;;
1509;SDS011;746;48.688;9.428;2022-09-03T07:50:31;4.87;;;3.17;;
1509;SDS011;746;48.688;9.428;2022-09-03T07:52:59;3.77;;;3.07;;
1509;SDS011;746;48.688;9.428;2022-09-03T07:55:20;7.07;;;3.17;;
1509;SDS011;746;48.688;9.428;2022-09-03T07:57:42;3.83;;;3.10;;
1509;SDS011;746;48.688;9.428;2022-09-03T08:00:03;4.23;;;3.23;;
1509;SDS011;746;48.688;9.428;2022-09-03T08:02:26;4.93;;;3.50;;
1509;SDS011;746;48.688;9.428;2022-09-03T08:04:47;3.67;;;2.90;;
1509;SDS011;746;48.688;9.428;2022-09-03T08:07:09;3.13;;;2.80;;
1509;SDS011;746;48.688;9.428;2022-09-03T08:09:31;3.33;;;3.13;;
1509;SDS011;746;48.688;9.428;2022-09-03T08:11:52;3.30;;;3.00;;
1509;SDS011;746;48.688;9.428;2022-09-03T08:14:13;3.47;;;3.13;;
1509;SDS011;746;48.688;9.428;2022-09-03T08:16:36;3.40;;;3.10;;
1509;SDS011;746;48.688;9.428;2022-09-03T08:18:59;3.40;;;3.20;;
1509;SDS011;746;48.688;9.428;2022-09-03T08:21:21;3.57;;;3.30;;
1509;SDS011;746;48.688;9.428;2022-09-03T08:23:43;4.53;;;3.20;;
1509;SDS011;746;48.688;9.428;2022-09-03T08:26:06;3.50;;;3.20;;
1509;SDS011;746;48.688;9.428;2022-09-03T08:28:28;3.73;;;3.40;;
1509;SDS011;746;48.688;9.428;2022-09-03T08:30:53;4.67;;;3.90;;
1509;SDS011;746;48.688;9.428;2022-09-03T08:33:14;3.30;;;3.10;;
1509;SDS011;746;48.688;9.428;2022-09-03T08:35:35;3.40;;;3.20;;
1509;SDS011;746;48.688;9.428;2022-09-03T08:37:58;3.83;;;3.00;;
1509;SDS011;746;48.688;9.428;2022-09-03T08:40:24;3.97;;;3.13;;
1509;SDS011;746;48.688;9.428;2022-09-03T08:42:51;3.50;;;3.30;;
1509;SDS011;746;48.688;9.428;2022-09-03T08:45:25;4.10;;;3.70;;
1509;SDS011;746;48.688;9.428;2022-09-03T08:47:50;3.47;;;3.17;;
1509;SDS011;746;48.688;9.428;2022-09-03T08:50:21;3.40;;;3.20;;
1509;SDS011;746;48.688;9.428;2022-09-03T08:52:45;3.80;;;3.60;;
1509;SDS011;746;48.688;9.428;2022-09-03T08:55:13;3.70;;;3.50;;
1509;SDS011;746;48.688;9.428;2022-09-03T08:57:39;4.00;;;3.70;;
1509;SDS011;746;48.688;9.428;2022-09-03T09:00:05;3.10;;;2.90;;
1509;SDS011;746;48.688;9.428;2022-09-03T09:02:31;3.60;;;3.40;;
1509;SDS011;746;48.688;9.428;2022-09-03T09:05:02;3.93;;;3.63;;
1509;SDS011;746;48.688;9.428;2022-09-03T09:07:33;3.83;;;3.40;;
1509;SDS011;746;48.688;9.428;2022-09-03T09:09:59;14.27;;;3.27;;
1509;SDS011;746;48.688;9.428;2022-09-03T09:12:28;3.60;;;3.37;;
1509;SDS011;746;48.688;9.428;2022-09-03T09:15:07;4.00;;;3.70;;
1509;SDS011;746;48.688;9.428;2022-09-03T09:17:35;3.90;;;3.50;;
1509;SDS011;746;48.688;9.428;2022-09-03T09:20:08;5.10;;;3.53;;
1509;SDS011;746;48.688;9.428;2022-09-03T09:22:37;3.37;;;3.17;;
1509;SDS011;746;48.688;9.428;2022-09-03T09:25:00;3.97;;;3.23;;
1509;SDS011;746;48.688;9.428;2022-09-03T09:27:24;4.30;;;3.30;;
1509;SDS011;746;48.688;9.428;2022-09-03T09:29:47;4.17;;;3.20;;
1509;SDS011;746;48.688;9.428;2022-09-03T09:32:12;3.13;;;3.03;;
1509;SDS011;746;48.688;9.428;2022-09-03T09:34:34;3.43;;;3.23;;
1509;SDS011;746;48.688;9.428;2022-09-03T09:36:56;3.20;;;3.00;;
1509;SDS011;746;48.688;9.428;2022-09-03T09:39:18;3.90;;;3.53;;
1509;SDS011;746;48.688;9.428;2022-09-03T09:41:40;3.60;;;2.73;;
1509;SDS011;746;48.688;9.428;2022-09-03T09:44:02;2.90;;;2.80;;
1509;SDS011;746;48.688;9.428;2022-09-03T09:46:24;3.10;;;2.90;;
1509;SDS011;746;48.688;9.428;2022-09-03T09:48:49;4.20;;;2.87;;
1509;SDS011;746;48.688;9.428;2022-09-03T09:51:16;3.00;;;2.80;;
1509;SDS011;746;48.688;9.428;2022-09-03T09:53:39;4.27;;;3.20;;
1509;SDS011;746;48.688;9.428;2022-09-03T09:56:06;3.30;;;3.00;;
1509;SDS011;746;48.688;9.428;2022-09-03T09:58:28;3.20;;;2.97;;
1509;SDS011;746;48.688;9.428;2022-09-03T10:00:55;3.13;;;2.93;;
1509;SDS011;746;48.688;9.428;2022-09-03T10:03:19;3.00;;;2.80;;
1509;SDS011;746;48.688;9.428;2022-09-03T10:05:42;3.07;;;2.87;;
1509;SDS011;746;48.688;9.428;2022-09-03T10:08:05;2.97;;;2.77;;
1509;SDS011;746;48.688;9.428;2022-09-03T10:10:27;3.10;;;2.90;;
1509;SDS011;746;48.688;9.428;2022-09-03T10:12:55;3.03;;;2.90;;
1509;SDS011;746;48.688;9.428;2022-09-03T10:15:21;3.10;;;2.90;;
1509;SDS011;746;48.688;9.428;2022-09-03T10:17:49;3.10;;;2.80;;
1509;SDS011;746;48.688;9.428;2022-09-03T10:20:17;2.90;;;2.70;;
1509;SDS011;746;48.688;9.428;2022-09-03T10:22:49;3.13;;;2.60;;
1509;SDS011;746;48.688;9.428;2022-09-03T10:25:16;2.90;;;2.70;;
1509;SDS011;746;48.688;9.428;2022-09-03T10:27:39;2.73;;;2.53;;
1509;SDS011;746;48.688;9.428;2022-09-03T10:30:11;3.03;;;2.73;;
1509;SDS011;746;48.688;9.428;2022-09-03T10:32:36;2.90;;;2.80;;
1509;SDS011;746;48.688;9.428;2022-09-03T10:35:09;2.60;;;2.40;;
1509;SDS011;746;48.688;9.428;2022-09-03T10:37:36;2.87;;;2.70;;
1509;SDS011;746;48.688;9.428;2022-09-03T10:40:04;3.40;;;3.10;;
1509;SDS011;746;48.688;9.428;2022-09-03T10:42:34;3.27;;;3.07;;
1509;SDS011;746;48.688;9.428;2022-09-03T10:45:02;3.10;;;3.00;;
1509;SDS011;746;48.688;9.428;2022-09-03T10:47:36;2.90;;;2.80;;
1509;SDS011;746;48.688;9.428;2022-09-03T10:50:07;3.37;;;3.17;;
1509;SDS011;746;48.688;9.428;2022-09-03T10:52:36;4.67;;;3.00;;
1509;SDS011;746;48.688;9.428;2022-09-03T10:55:16;3.13;;;2.93;;
1509;SDS011;746;48.688;9.428;2022-09-03T10:57:47;4.10;;;3.13;;
1509;SDS011;746;48.688;9.428;2022-09-03T11:00:13;3.27;;;2.97;;
1509;SDS011;746;48.688;9.428;2022-09-03T11:02:51;3.70;;;3.30;;
1509;SDS011;746;48.688;9.428;2022-09-03T11:05:40;3.27;;;3.00;;
1509;SDS011;746;48.688;9.428;2022-09-03T11:08:09;3.27;;;3.07;;
1509;SDS011;746;48.688;9.428;2022-09-03T11:10:38;4.97;;;3.40;;
1509;SDS011;746;48.688;9.428;2022-09-03T11:13:02;3.40;;;3.10;;
1509;SDS011;746;48.688;9.428;2022-09-03T11:15:27;5.33;;;3.10;;
1509;SDS011;746;48.688;9.428;2022-09-03T11:17:53;3.33;;;3.13;;
1509;SDS011;746;48.688;9.428;2022-09-03T11:20:17;3.40;;;3.20;;
1509;SDS011;746;48.688;9.428;2022-09-03T11:22:40;3.33;;;3.10;;
1509;SDS011;746;48.688;9.428;2022-09-03T11:25:04;4.23;;;3.20;;
1509;SDS011;746;48.688;9.428;2022-09-03T11:27:34;3.50;;;3.20;;
1509;SDS011;746;48.688;9.428;2022-09-03T11:30:04;3.20;;;2.90;;
1509;SDS011;746;48.688;9.428;2022-09-03T11:32:28;3.27;;;3.07;;
1509;SDS011;746;48.688;9.428;2022-09-03T11:34:59;3.23;;;3.10;;
1509;SDS011;746;48.688;9.428;2022-09-03T11:37:21;3.33;;;3.13;;
1509;SDS011;746;48.688;9.428;2022-09-03T11:39:43;3.60;;;3.40;;
1509;SDS011;746;48.688;9.428;2022-09-03T11:42:09;4.83;;;3.50;;
1509;SDS011;746;48.688;9.428;2022-09-03T11:44:43;3.60;;;3.40;;
1509;SDS011;746;48.688;9.428;2022-09-03T11:47:14;4.43;;;3.10;;
1509;SDS011;746;48.688;9.428;2022-09-03T11:49:42;3.60;;;3.37;;
1509;SDS011;746;48.688;9.428;2022-09-03T11:52:05;6.07;;;3.80;;
1509;SDS011;746;48.688;9.428;2022-09-03T11:54:30;4.10;;;3.80;;
1509;SDS011;746;48.688;9.428;2022-09-03T11:57:02;3.80;;;3.50;;
1509;SDS011;746;48.688;9.428;2022-09-03T11:59:25;4.17;;;3.70;;
1509;SDS011;746;48.688;9.428;2022-09-03T12:01:50;3.93;;;3.73;;
1509;SDS011;746;48.688;9.428;2022-09-03T12:04:13;3.77;;;3.47;;
1509;SDS011;746;48.688;9.428;2022-09-03T12:12:29;4.87;;;4.37;;
1509;SDS011;746;48.688;9.428;2022-09-03T12:14:57;4.33;;;4.03;;
1509;SDS011;746;48.688;9.428;2022-09-03T12:17:27;4.83;;;4.43;;
1509;SDS011;746;48.688;9.428;2022-09-03T12:19:52;7.50;;;4.77;;
1509;SDS011;746;48.688;9.428;2022-09-03T12:22:14;5.00;;;4.60;;
1509;SDS011;746;48.688;9.428;2022-09-03T12:24:36;4.17;;;3.47;;
1509;SDS011;746;48.688;9.428;2022-09-03T12:26:58;5.13;;;3.70;;
1509;SDS011;746;48.688;9.428;2022-09-03T12:29:21;2.97;;;2.37;;
1509;SDS011;746;48.688;9.428;2022-09-03T12:31:47;4.63;;;2.83;;
1509;SDS011;746;48.688;9.428;2022-09-03T12:34:11;5.63;;;3.03;;
1509;SDS011;746;48.688;9.428;2022-09-03T12:36:36;2.90;;;2.70;;
1509;SDS011;746;48.688;9.428;2022-09-03T12:39:06;3.30;;;2.90;;
1509;SDS011;746;48.688;9.428;2022-09-03T12:41:31;3.20;;;2.90;;
1509;SDS011;746;48.688;9.428;2022-09-03T12:43:54;2.77;;;2.53;;
1509;SDS011;746;48.688;9.428;2022-09-03T12:46:16;2.70;;;2.50;;
1509;SDS011;746;48.688;9.428;2022-09-03T12:48:46;2.70;;;2.50;;
1509;SDS011;746;48.688;9.428;2022-09-03T12:51:35;2.77;;;2.50;;
1509;SDS011;746;48.688;9.428;2022-09-03T12:54:11;2.37;;;2.17;;
1509;SDS011;746;48.688;9.428;2022-09-03T12:56:34;2.50;;;2.30;;
1509;SDS011;746;48.688;9.428;2022-09-03T12:59:02;7.07;;;2.73;;
1509;SDS011;746;48.688;9.428;2022-09-03T13:01:26;2.53;;;2.17;;
1509;SDS011;746;48.688;9.428;2022-09-03T13:03:51;3.53;;;2.30;;
1509;SDS011;746;48.688;9.428;2022-09-03T13:06:17;3.27;;;2.20;;
1509;SDS011;746;48.688;9.428;2022-09-03T13:08:45;4.33;;;2.30;;
1509;SDS011;746;48.688;9.428;2022-09-03T13:11:07;3.67;;;2.50;;
1509;SDS011;746;48.688;9.428;2022-09-03T13:13:47;3.57;;;3.00;;
1509;SDS011;746;48.688;9.428;2022-09-03T13:16:22;4.00;;;2.60;;
1509;SDS011;746;48.688;9.428;2022-09-03T13:18:52;5.67;;;2.63;;
1509;SDS011;746;48.688;9.428;2022-09-03T13:21:20;3.23;;;2.30;;
1509;SDS011;746;48.688;9.428;2022-09-03T13:24:00;7.47;;;2.20;;
1509;SDS011;746;48.688;9.428;2022-09-03T13:26:55;2.30;;;2.10;;
1509;SDS011;746;48.688;9.428;2022-09-03T13:29:25;2.30;;;2.17;;
1509;SDS011;746;48.688;9.428;2022-09-03T13:31:59;6.50;;;2.40;;
1509;SDS011;746;48.688;9.428;2022-09-03T13:34:26;2.10;;;1.90;;
1509;SDS011;746;48.688;9.428;2022-09-03T13:36:53;1.93;;;1.83;;
1509;SDS011;746;48.688;9.428;2022-09-03T13:39:21;2.30;;;2.10;;
1509;SDS011;746;48.688;9.428;2022-09-03T13:41:47;4.23;;;2.10;;
1509;SDS011;746;48.688;9.428;2022-09-03T13:44:13;2.00;;;1.40;;
1509;SDS011;746;48.688;9.428;2022-09-03T13:46:42;1.70;;;1.60;;
1509;SDS011;746;48.688;9.428;2022-09-03T13:49:07;2.60;;;2.00;;
1509;SDS011;746;48.688;9.428;2022-09-03T13:51:52;2.03;;;1.93;;
1509;SDS011;746;48.688;9.428;2022-09-03T13:54:17;1.93;;;1.70;;
1509;SDS011;746;48.688;9.428;2022-09-03T13:57:03;2.43;;;1.70;;
1509;SDS011;746;48.688;9.428;2022-09-03T13:59:28;2.30;;;1.60;;
1509;SDS011;746;48.688;9.428;2022-09-03T14:04:50;2.10;;;1.90;;
1509;SDS011;746;48.688;9.428;2022-09-03T14:07:19;2.47;;;2.00;;
1509;SDS011;746;48.688;9.428;2022-09-03T14:09:50;3.87;;;2.50;;
1509;SDS011;746;48.688;9.428;2022-09-03T14:12:17;1.70;;;1.60;;
1509;SDS011;746;48.688;9.428;2022-09-03T14:14:44;2.43;;;2.23;;
1509;SDS011;746;48.688;9.428;2022-09-03T14:17:11;1.90;;;1.80;;
1509;SDS011;746;48.688;9.428;2022-09-03T14:19:36;1.77;;;1.67;;
1509;SDS011;746;48.688;9.428;2022-09-03T14:22:04;1.33;;;1.27;;
1509;SDS011;746;48.688;9.428;2022-09-03T14:24:28;1.20;;;1.20;;
1509;SDS011;746;48.688;9.428;2022-09-03T14:26:56;1.50;;;1.27;;
1509;SDS011;746;48.688;9.428;2022-09-03T14:29:20;2.83;;;1.20;;
1509;SDS011;746;48.688;9.428;2022-09-03T14:31:57;1.10;;;1.10;;
1509;SDS011;746;48.688;9.428;2022-09-03T14:34:43;1.40;;;1.00;;
1509;SDS011;746;48.688;9.428;2022-09-03T14:37:16;1.30;;;1.20;;
1509;SDS011;746;48.688;9.428;2022-09-03T14:39:46;1.20;;;1.10;;
1509;SDS011;746;48.688;9.428;2022-09-03T14:45:20;1.50;;;1.10;;
1509;SDS011;746;48.688;9.428;2022-09-03T14:47:56;1.17;;;1.17;;
1509;SDS011;746;48.688;9.428;2022-09-03T14:50:27;1.27;;;1.17;;
1509;SDS011;746;48.688;9.428;2022-09-03T14:53:00;1.20;;;1.20;;
1509;SDS011;746;48.688;9.428;2022-09-03T14:55:39;1.33;;;1.23;;
1509;SDS011;746;48.688;9.428;2022-09-03T14:58:17;1.00;;;1.00;;
1509;SDS011;746;48.688;9.428;2022-09-03T15:00:45;1.10;;;1.10;;
1509;SDS011;746;48.688;9.428;2022-09-03T15:03:32;1.43;;;1.10;;
1509;SDS011;746;48.688;9.428;2022-09-03T15:06:06;1.20;;;1.10;;
1509;SDS011;746;48.688;9.428;2022-09-03T15:08:53;2.00;;;1.10;;
1509;SDS011;746;48.688;9.428;2022-09-03T15:11:22;1.40;;;1.30;;
1509;SDS011;746;48.688;9.428;2022-09-03T15:13:47;1.10;;;1.10;;
1509;SDS011;746;48.688;9.428;2022-09-03T15:16:19;1.70;;;1.30;;
1509;SDS011;746;48.688;9.428;2022-09-03T15:18:51;1.00;;;1.00;;
1509;SDS011;746;48.688;9.428;2022-09-03T15:21:23;1.43;;;1.40;;
1509;SDS011;746;48.688;9.428;2022-09-03T15:23:51;1.80;;;1.70;;
1509;SDS011;746;48.688;9.428;2022-09-03T15:26:30;1.70;;;1.50;;
1509;SDS011;746;48.688;9.428;2022-09-03T15:29:14;1.60;;;1.50;;
1509;SDS011;746;48.688;9.428;2022-09-03T15:31:49;1.20;;;1.20;;
1509;SDS011;746;48.688;9.428;2022-09-03T15:34:18;1.13;;;1.10;;
1509;SDS011;746;48.688;9.428;2022-09-03T15:37:07;1.47;;;1.37;;